sensor_id;sensor_type;location;lat;lon;timestamp;P1;durP1;ratioP1;P2;durP2;ratioP2
11699;SDS011;5906;51.660;6.674;2023-07-31T00:00:25;3.90;;;2.67;;
11699;SDS011;5906;51.660;6.674;2023-07-31T00:02:53;2.90;;;2.20;;
11699;SDS011;5906;51.660;6.674;2023-07-31T00:05:22;2.90;;;2.17;;
11699;SDS011;5906;51.660;6.674;2023-07-31T00:07:49;2.97;;;1.70;;
11699;SDS011;5906;51.660;6.674;2023-07-31T00:10:16;3.80;;;2.30;;
11699;SDS011;5906;51.660;6.674;2023-07-31T00:12:44;4.83;;;2.30;;
11699;SDS011;5906;51.660;6.674;2023-07-31T00:15:13;2.67;;;1.90;;
11699;SDS011;5906;51.660;6.674;2023-07-31T00:17:40;3.17;;;2.43;;
11699;SDS011;5906;51.660;6.674;2023-07-31T00:20:08;4.53;;;2.97;;
11699;SDS011;5906;51.660;6.674;2023-07-31T00:22:35;7.53;;;3.00;;
11699;SDS011;5906;51.660;6.674;2023-07-31T00:25:02;6.20;;;3.87;;
11699;SDS011;5906;51.660;6.674;2023-07-31T00:27:30;7.70;;;4.27;;
11699;SDS011;5906;51.660;6.674;2023-07-31T00:29:58;8.57;;;4.33;;
11699;SDS011;5906;51.660;6.674;2023-07-31T00:32:24;6.90;;;4.20;;
11699;SDS011;5906;51.660;6.674;2023-07-31T00:34:52;11.50;;;6.03;;
11699;SDS011;5906;51.660;6.674;2023-07-31T00:37:19;11.97;;;6.97;;
11699;SDS011;5906;51.660;6.674;2023-07-31T00:39:46;13.70;;;6.23;;
11699;SDS011;5906;51.660;6.674;2023-07-31T00:42:13;16.30;;;6.00;;
11699;SDS011;5906;51.660;6.674;2023-07-31T00:44:40;24.30;;;7.10;;
11699;SDS011;5906;51.660;6.674;2023-07-31T00:47:07;15.03;;;7.20;;
11699;SDS011;5906;51.660;6.674;2023-07-31T00:49:34;28.17;;;8.40;;
11699;SDS011;5906;51.660;6.674;2023-07-31T00:52:01;23.00;;;8.00;;
11699;SDS011;5906;51.660;6.674;2023-07-31T00:54:29;24.07;;;8.83;;
11699;SDS011;5906;51.660;6.674;2023-07-31T00:56:56;22.13;;;8.43;;
11699;SDS011;5906;51.660;6.674;2023-07-31T00:59:24;23.07;;;9.50;;
11699;SDS011;5906;51.660;6.674;2023-07-31T01:01:51;24.20;;;9.00;;
11699;SDS011;5906;51.660;6.674;2023-07-31T01:04:18;31.60;;;9.43;;
11699;SDS011;5906;51.660;6.674;2023-07-31T01:06:51;18.00;;;8.97;;
11699;SDS011;5906;51.660;6.674;2023-07-31T01:09:37;23.03;;;9.43;;
11699;SDS011;5906;51.660;6.674;2023-07-31T01:12:13;21.47;;;7.80;;
11699;SDS011;5906;51.660;6.674;2023-07-31T01:14:52;19.23;;;8.47;;
11699;SDS011;5906;51.660;6.674;2023-07-31T01:17:29;16.87;;;7.27;;
11699;SDS011;5906;51.660;6.674;2023-07-31T01:19:56;22.70;;;8.03;;
11699;SDS011;5906;51.660;6.674;2023-07-31T01:28:04;28.77;;;7.53;;
11699;SDS011;5906;51.660;6.674;2023-07-31T01:30:36;23.60;;;6.90;;
11699;SDS011;5906;51.660;6.674;2023-07-31T01:33:07;22.20;;;6.80;;
11699;SDS011;5906;51.660;6.674;2023-07-31T01:35:35;17.57;;;6.83;;
11699;SDS011;5906;51.660;6.674;2023-07-31T01:38:04;21.23;;;7.03;;
11699;SDS011;5906;51.660;6.674;2023-07-31T01:40:31;14.80;;;6.50;;
11699;SDS011;5906;51.660;6.674;2023-07-31T01:42:58;18.10;;;6.70;;
11699;SDS011;5906;51.660;6.674;2023-07-31T01:45:26;22.00;;;6.20;;
11699;SDS011;5906;51.660;6.674;2023-07-31T01:47:53;17.33;;;6.27;;
11699;SDS011;5906;51.660;6.674;2023-07-31T01:50:20;18.37;;;6.77;;
11699;SDS011;5906;51.660;6.674;2023-07-31T01:52:47;14.53;;;5.63;;
11699;SDS011;5906;51.660;6.674;2023-07-31T01:55:14;13.53;;;5.40;;
11699;SDS011;5906;51.660;6.674;2023-07-31T01:57:41;25.17;;;6.40;;
11699;SDS011;5906;51.660;6.674;2023-07-31T02:00:08;18.07;;;6.13;;
11699;SDS011;5906;51.660;6.674;2023-07-31T02:02:35;18.53;;;5.90;;
11699;SDS011;5906;51.660;6.674;2023-07-31T02:05:03;12.57;;;6.23;;
11699;SDS011;5906;51.660;6.674;2023-07-31T02:07:30;18.00;;;6.00;;
11699;SDS011;5906;51.660;6.674;2023-07-31T02:09:57;13.00;;;5.27;;
11699;SDS011;5906;51.660;6.674;2023-07-31T02:12:24;25.67;;;6.20;;
11699;SDS011;5906;51.660;6.674;2023-07-31T02:14:51;21.53;;;5.83;;
11699;SDS011;5906;51.660;6.674;2023-07-31T02:17:18;22.60;;;5.60;;
11699;SDS011;5906;51.660;6.674;2023-07-31T02:19:45;17.83;;;4.87;;
11699;SDS011;5906;51.660;6.674;2023-07-31T02:22:12;17.27;;;5.70;;
11699;SDS011;5906;51.660;6.674;2023-07-31T02:24:39;17.37;;;5.97;;
11699;SDS011;5906;51.660;6.674;2023-07-31T02:27:06;13.20;;;5.43;;
11699;SDS011;5906;51.660;6.674;2023-07-31T02:29:33;18.23;;;5.90;;
11699;SDS011;5906;51.660;6.674;2023-07-31T02:32:00;21.53;;;5.07;;
11699;SDS011;5906;51.660;6.674;2023-07-31T02:34:27;20.57;;;5.87;;
11699;SDS011;5906;51.660;6.674;2023-07-31T02:36:54;17.63;;;5.97;;
11699;SDS011;5906;51.660;6.674;2023-07-31T02:39:21;16.63;;;5.73;;
11699;SDS011;5906;51.660;6.674;2023-07-31T02:41:48;18.93;;;6.00;;
11699;SDS011;5906;51.660;6.674;2023-07-31T02:44:15;18.30;;;6.07;;
11699;SDS011;5906;51.660;6.674;2023-07-31T02:46:42;15.73;;;5.17;;
11699;SDS011;5906;51.660;6.674;2023-07-31T02:49:09;26.93;;;5.60;;
11699;SDS011;5906;51.660;6.674;2023-07-31T02:51:36;16.63;;;5.77;;
11699;SDS011;5906;51.660;6.674;2023-07-31T02:54:03;17.80;;;6.43;;
11699;SDS011;5906;51.660;6.674;2023-07-31T02:56:30;25.90;;;6.10;;
11699;SDS011;5906;51.660;6.674;2023-07-31T02:59:00;16.00;;;5.10;;
11699;SDS011;5906;51.660;6.674;2023-07-31T03:01:27;17.77;;;5.77;;
11699;SDS011;5906;51.660;6.674;2023-07-31T03:03:54;11.63;;;5.43;;
11699;SDS011;5906;51.660;6.674;2023-07-31T03:06:21;15.50;;;6.30;;
11699;SDS011;5906;51.660;6.674;2023-07-31T03:08:48;17.20;;;5.50;;
11699;SDS011;5906;51.660;6.674;2023-07-31T03:11:15;21.23;;;5.83;;
11699;SDS011;5906;51.660;6.674;2023-07-31T03:13:42;14.43;;;6.20;;
11699;SDS011;5906;51.660;6.674;2023-07-31T03:16:09;17.53;;;6.50;;
11699;SDS011;5906;51.660;6.674;2023-07-31T03:18:36;22.50;;;5.87;;
11699;SDS011;5906;51.660;6.674;2023-07-31T03:21:04;16.57;;;5.70;;
11699;SDS011;5906;51.660;6.674;2023-07-31T03:23:31;15.80;;;6.30;;
11699;SDS011;5906;51.660;6.674;2023-07-31T03:25:59;19.77;;;6.50;;
11699;SDS011;5906;51.660;6.674;2023-07-31T03:28:27;16.80;;;5.93;;
11699;SDS011;5906;51.660;6.674;2023-07-31T03:30:55;20.87;;;6.23;;
11699;SDS011;5906;51.660;6.674;2023-07-31T03:33:22;15.60;;;5.90;;
11699;SDS011;5906;51.660;6.674;2023-07-31T03:35:49;17.70;;;5.30;;
11699;SDS011;5906;51.660;6.674;2023-07-31T03:38:16;23.73;;;5.80;;
11699;SDS011;5906;51.660;6.674;2023-07-31T03:40:44;12.93;;;5.63;;
11699;SDS011;5906;51.660;6.674;2023-07-31T03:43:11;17.60;;;5.83;;
11699;SDS011;5906;51.660;6.674;2023-07-31T03:45:39;17.90;;;5.87;;
11699;SDS011;5906;51.660;6.674;2023-07-31T03:48:06;23.00;;;6.80;;
11699;SDS011;5906;51.660;6.674;2023-07-31T03:50:34;16.07;;;6.17;;
11699;SDS011;5906;51.660;6.674;2023-07-31T03:53:01;23.17;;;6.07;;
11699;SDS011;5906;51.660;6.674;2023-07-31T03:55:28;16.27;;;5.30;;
11699;SDS011;5906;51.660;6.674;2023-07-31T03:57:55;18.77;;;6.13;;
11699;SDS011;5906;51.660;6.674;2023-07-31T04:00:22;17.73;;;5.83;;
11699;SDS011;5906;51.660;6.674;2023-07-31T04:02:50;17.00;;;6.67;;
11699;SDS011;5906;51.660;6.674;2023-07-31T04:05:17;15.37;;;5.67;;
11699;SDS011;5906;51.660;6.674;2023-07-31T04:07:44;24.87;;;7.07;;
11699;SDS011;5906;51.660;6.674;2023-07-31T04:10:11;15.17;;;5.63;;
11699;SDS011;5906;51.660;6.674;2023-07-31T04:12:39;17.67;;;6.13;;
11699;SDS011;5906;51.660;6.674;2023-07-31T04:15:07;11.83;;;4.77;;
11699;SDS011;5906;51.660;6.674;2023-07-31T04:17:34;16.73;;;5.47;;
11699;SDS011;5906;51.660;6.674;2023-07-31T04:20:01;15.33;;;6.27;;
11699;SDS011;5906;51.660;6.674;2023-07-31T04:22:28;25.33;;;6.20;;
11699;SDS011;5906;51.660;6.674;2023-07-31T04:24:55;14.37;;;5.77;;
11699;SDS011;5906;51.660;6.674;2023-07-31T04:27:22;15.00;;;5.50;;
11699;SDS011;5906;51.660;6.674;2023-07-31T04:29:50;21.93;;;6.63;;
11699;SDS011;5906;51.660;6.674;2023-07-31T04:32:17;14.80;;;5.80;;
11699;SDS011;5906;51.660;6.674;2023-07-31T04:34:45;20.83;;;6.20;;
11699;SDS011;5906;51.660;6.674;2023-07-31T04:37:12;16.07;;;5.53;;
11699;SDS011;5906;51.660;6.674;2023-07-31T04:39:40;15.13;;;5.90;;
11699;SDS011;5906;51.660;6.674;2023-07-31T04:42:07;15.57;;;5.23;;
11699;SDS011;5906;51.660;6.674;2023-07-31T04:44:35;15.53;;;5.03;;
11699;SDS011;5906;51.660;6.674;2023-07-31T04:47:02;12.83;;;5.37;;
11699;SDS011;5906;51.660;6.674;2023-07-31T04:49:29;12.77;;;6.33;;
11699;SDS011;5906;51.660;6.674;2023-07-31T04:51:56;15.40;;;6.20;;
11699;SDS011;5906;51.660;6.674;2023-07-31T04:54:23;20.13;;;5.63;;
11699;SDS011;5906;51.660;6.674;2023-07-31T04:56:52;15.50;;;6.13;;
11699;SDS011;5906;51.660;6.674;2023-07-31T04:59:20;15.50;;;5.00;;
11699;SDS011;5906;51.660;6.674;2023-07-31T05:01:47;15.10;;;5.50;;
11699;SDS011;5906;51.660;6.674;2023-07-31T05:04:14;18.93;;;5.10;;
11699;SDS011;5906;51.660;6.674;2023-07-31T05:06:41;16.80;;;5.70;;
11699;SDS011;5906;51.660;6.674;2023-07-31T05:09:08;16.80;;;6.10;;
11699;SDS011;5906;51.660;6.674;2023-07-31T05:11:36;12.30;;;5.50;;
11699;SDS011;5906;51.660;6.674;2023-07-31T05:14:03;17.50;;;5.90;;
11699;SDS011;5906;51.660;6.674;2023-07-31T05:16:30;17.53;;;5.00;;
11699;SDS011;5906;51.660;6.674;2023-07-31T05:18:57;17.30;;;5.90;;
11699;SDS011;5906;51.660;6.674;2023-07-31T05:21:24;18.63;;;5.87;;
11699;SDS011;5906;51.660;6.674;2023-07-31T05:23:51;18.63;;;6.33;;
11699;SDS011;5906;51.660;6.674;2023-07-31T05:26:19;9.23;;;5.37;;
11699;SDS011;5906;51.660;6.674;2023-07-31T05:28:46;14.33;;;5.80;;
11699;SDS011;5906;51.660;6.674;2023-07-31T05:31:13;20.93;;;6.10;;
11699;SDS011;5906;51.660;6.674;2023-07-31T05:33:40;19.70;;;6.43;;
11699;SDS011;5906;51.660;6.674;2023-07-31T05:36:08;16.73;;;5.27;;
11699;SDS011;5906;51.660;6.674;2023-07-31T05:38:35;18.10;;;6.40;;
11699;SDS011;5906;51.660;6.674;2023-07-31T05:41:02;17.70;;;6.00;;
11699;SDS011;5906;51.660;6.674;2023-07-31T05:43:29;22.37;;;5.37;;
11699;SDS011;5906;51.660;6.674;2023-07-31T05:45:56;16.87;;;5.77;;
11699;SDS011;5906;51.660;6.674;2023-07-31T05:48:23;18.47;;;5.80;;
11699;SDS011;5906;51.660;6.674;2023-07-31T05:50:51;14.77;;;5.63;;
11699;SDS011;5906;51.660;6.674;2023-07-31T05:53:19;15.50;;;5.37;;
11699;SDS011;5906;51.660;6.674;2023-07-31T05:55:46;19.03;;;5.47;;
11699;SDS011;5906;51.660;6.674;2023-07-31T05:58:13;17.37;;;5.50;;
11699;SDS011;5906;51.660;6.674;2023-07-31T06:00:41;12.17;;;5.67;;
11699;SDS011;5906;51.660;6.674;2023-07-31T06:03:08;19.33;;;5.53;;
11699;SDS011;5906;51.660;6.674;2023-07-31T06:05:35;17.37;;;5.70;;
11699;SDS011;5906;51.660;6.674;2023-07-31T06:08:02;14.90;;;5.40;;
11699;SDS011;5906;51.660;6.674;2023-07-31T06:10:29;10.47;;;4.70;;
11699;SDS011;5906;51.660;6.674;2023-07-31T06:12:56;11.20;;;5.53;;
11699;SDS011;5906;51.660;6.674;2023-07-31T06:15:23;12.37;;;5.37;;
11699;SDS011;5906;51.660;6.674;2023-07-31T06:17:50;8.83;;;5.07;;
11699;SDS011;5906;51.660;6.674;2023-07-31T06:20:18;11.17;;;5.80;;
11699;SDS011;5906;51.660;6.674;2023-07-31T06:22:46;17.93;;;5.87;;
11699;SDS011;5906;51.660;6.674;2023-07-31T06:25:13;14.10;;;5.70;;
11699;SDS011;5906;51.660;6.674;2023-07-31T06:27:41;13.77;;;5.33;;
11699;SDS011;5906;51.660;6.674;2023-07-31T06:30:09;9.00;;;4.77;;
11699;SDS011;5906;51.660;6.674;2023-07-31T06:32:36;10.77;;;5.43;;
11699;SDS011;5906;51.660;6.674;2023-07-31T06:35:04;10.80;;;5.10;;
11699;SDS011;5906;51.660;6.674;2023-07-31T06:37:32;12.80;;;5.70;;
11699;SDS011;5906;51.660;6.674;2023-07-31T06:40:02;12.20;;;5.80;;
11699;SDS011;5906;51.660;6.674;2023-07-31T06:42:32;14.37;;;7.00;;
11699;SDS011;5906;51.660;6.674;2023-07-31T06:44:59;8.67;;;5.80;;
11699;SDS011;5906;51.660;6.674;2023-07-31T06:47:26;14.73;;;6.37;;
11699;SDS011;5906;51.660;6.674;2023-07-31T06:49:53;13.07;;;6.10;;
11699;SDS011;5906;51.660;6.674;2023-07-31T06:52:20;16.43;;;6.23;;
11699;SDS011;5906;51.660;6.674;2023-07-31T06:55:00;11.43;;;6.33;;
11699;SDS011;5906;51.660;6.674;2023-07-31T06:57:30;12.20;;;6.50;;
11699;SDS011;5906;51.660;6.674;2023-07-31T06:59:57;15.27;;;7.30;;
11699;SDS011;5906;51.660;6.674;2023-07-31T07:02:25;14.87;;;6.10;;
11699;SDS011;5906;51.660;6.674;2023-07-31T07:04:52;13.13;;;5.90;;
11699;SDS011;5906;51.660;6.674;2023-07-31T07:07:19;19.93;;;5.77;;
11699;SDS011;5906;51.660;6.674;2023-07-31T07:09:46;8.90;;;5.10;;
11699;SDS011;5906;51.660;6.674;2023-07-31T07:12:13;9.90;;;5.57;;
11699;SDS011;5906;51.660;6.674;2023-07-31T07:14:40;14.90;;;5.53;;
11699;SDS011;5906;51.660;6.674;2023-07-31T07:17:07;11.20;;;5.70;;
11699;SDS011;5906;51.660;6.674;2023-07-31T07:19:34;8.23;;;5.10;;
11699;SDS011;5906;51.660;6.674;2023-07-31T07:22:01;12.07;;;5.53;;
11699;SDS011;5906;51.660;6.674;2023-07-31T07:24:28;8.60;;;5.03;;
11699;SDS011;5906;51.660;6.674;2023-07-31T07:26:55;8.23;;;4.87;;
11699;SDS011;5906;51.660;6.674;2023-07-31T07:29:22;17.03;;;4.80;;
11699;SDS011;5906;51.660;6.674;2023-07-31T07:31:49;9.13;;;5.20;;
11699;SDS011;5906;51.660;6.674;2023-07-31T07:34:16;9.30;;;4.90;;
11699;SDS011;5906;51.660;6.674;2023-07-31T07:36:43;8.80;;;5.00;;
11699;SDS011;5906;51.660;6.674;2023-07-31T07:39:10;10.30;;;5.13;;
11699;SDS011;5906;51.660;6.674;2023-07-31T07:41:37;8.60;;;5.40;;
11699;SDS011;5906;51.660;6.674;2023-07-31T07:44:05;9.17;;;4.40;;
11699;SDS011;5906;51.660;6.674;2023-07-31T07:46:31;8.80;;;4.57;;
11699;SDS011;5906;51.660;6.674;2023-07-31T07:48:59;8.20;;;4.00;;
11699;SDS011;5906;51.660;6.674;2023-07-31T07:51:26;7.40;;;3.93;;
11699;SDS011;5906;51.660;6.674;2023-07-31T07:53:53;5.87;;;4.40;;
11699;SDS011;5906;51.660;6.674;2023-07-31T07:56:20;9.50;;;4.83;;
11699;SDS011;5906;51.660;6.674;2023-07-31T07:58:49;7.70;;;4.87;;
11699;SDS011;5906;51.660;6.674;2023-07-31T08:01:16;8.43;;;4.70;;
11699;SDS011;5906;51.660;6.674;2023-07-31T08:03:44;7.60;;;3.67;;
11699;SDS011;5906;51.660;6.674;2023-07-31T08:06:11;7.07;;;4.20;;
11699;SDS011;5906;51.660;6.674;2023-07-31T08:08:39;7.90;;;3.97;;
11699;SDS011;5906;51.660;6.674;2023-07-31T08:11:06;6.87;;;4.30;;
11699;SDS011;5906;51.660;6.674;2023-07-31T08:13:33;8.17;;;4.70;;
11699;SDS011;5906;51.660;6.674;2023-07-31T08:16:00;6.00;;;4.30;;
11699;SDS011;5906;51.660;6.674;2023-07-31T08:18:27;8.43;;;4.43;;
11699;SDS011;5906;51.660;6.674;2023-07-31T08:20:54;4.93;;;3.80;;
11699;SDS011;5906;51.660;6.674;2023-07-31T08:23:21;9.33;;;4.47;;
11699;SDS011;5906;51.660;6.674;2023-07-31T08:25:49;7.03;;;3.70;;
11699;SDS011;5906;51.660;6.674;2023-07-31T08:28:17;4.60;;;3.33;;
11699;SDS011;5906;51.660;6.674;2023-07-31T08:30:44;9.30;;;3.80;;
11699;SDS011;5906;51.660;6.674;2023-07-31T08:33:11;5.43;;;4.13;;
11699;SDS011;5906;51.660;6.674;2023-07-31T08:35:38;6.93;;;3.40;;
11699;SDS011;5906;51.660;6.674;2023-07-31T08:38:05;6.90;;;4.07;;
11699;SDS011;5906;51.660;6.674;2023-07-31T08:40:32;7.10;;;3.70;;
11699;SDS011;5906;51.660;6.674;2023-07-31T08:43:04;7.67;;;3.97;;
11699;SDS011;5906;51.660;6.674;2023-07-31T08:45:31;5.50;;;3.57;;
11699;SDS011;5906;51.660;6.674;2023-07-31T08:47:59;5.73;;;3.57;;
11699;SDS011;5906;51.660;6.674;2023-07-31T08:50:27;6.87;;;3.63;;
11699;SDS011;5906;51.660;6.674;2023-07-31T08:52:54;7.07;;;3.50;;
11699;SDS011;5906;51.660;6.674;2023-07-31T08:55:24;5.30;;;3.60;;
11699;SDS011;5906;51.660;6.674;2023-07-31T08:57:52;6.77;;;4.00;;
11699;SDS011;5906;51.660;6.674;2023-07-31T09:00:20;5.70;;;3.40;;
11699;SDS011;5906;51.660;6.674;2023-07-31T09:03:25;8.37;;;4.13;;
11699;SDS011;5906;51.660;6.674;2023-07-31T09:05:46;7.20;;;3.50;;
11699;SDS011;5906;51.660;6.674;2023-07-31T09:08:34;6.40;;;3.73;;
11699;SDS011;5906;51.660;6.674;2023-07-31T09:11:05;6.10;;;3.50;;
11699;SDS011;5906;51.660;6.674;2023-07-31T09:13:32;8.27;;;4.00;;
11699;SDS011;5906;51.660;6.674;2023-07-31T09:15:59;6.97;;;3.80;;
11699;SDS011;5906;51.660;6.674;2023-07-31T09:18:26;7.37;;;3.43;;
11699;SDS011;5906;51.660;6.674;2023-07-31T09:21:00;7.60;;;3.67;;
11699;SDS011;5906;51.660;6.674;2023-07-31T09:23:41;5.33;;;3.60;;
11699;SDS011;5906;51.660;6.674;2023-07-31T09:26:10;6.97;;;3.97;;
11699;SDS011;5906;51.660;6.674;2023-07-31T09:28:38;6.47;;;3.70;;
11699;SDS011;5906;51.660;6.674;2023-07-31T09:31:05;6.43;;;3.30;;
11699;SDS011;5906;51.660;6.674;2023-07-31T09:33:32;5.90;;;3.97;;
11699;SDS011;5906;51.660;6.674;2023-07-31T09:35:59;5.00;;;3.40;;
11699;SDS011;5906;51.660;6.674;2023-07-31T09:38:27;8.30;;;3.20;;
11699;SDS011;5906;51.660;6.674;2023-07-31T09:40:55;4.80;;;3.50;;
11699;SDS011;5906;51.660;6.674;2023-07-31T09:43:24;5.30;;;3.27;;
11699;SDS011;5906;51.660;6.674;2023-07-31T09:45:54;6.83;;;3.33;;
11699;SDS011;5906;51.660;6.674;2023-07-31T09:48:23;9.47;;;3.47;;
11699;SDS011;5906;51.660;6.674;2023-07-31T09:50:53;7.97;;;3.60;;
11699;SDS011;5906;51.660;6.674;2023-07-31T09:53:27;4.37;;;3.20;;
11699;SDS011;5906;51.660;6.674;2023-07-31T09:55:58;6.00;;;2.90;;
11699;SDS011;5906;51.660;6.674;2023-07-31T09:58:25;5.80;;;3.53;;
11699;SDS011;5906;51.660;6.674;2023-07-31T10:00:57;5.43;;;3.43;;
11699;SDS011;5906;51.660;6.674;2023-07-31T10:03:26;4.97;;;3.37;;
11699;SDS011;5906;51.660;6.674;2023-07-31T10:05:55;4.20;;;3.33;;
11699;SDS011;5906;51.660;6.674;2023-07-31T10:08:23;7.40;;;3.67;;
11699;SDS011;5906;51.660;6.674;2023-07-31T10:10:58;4.40;;;3.07;;
11699;SDS011;5906;51.660;6.674;2023-07-31T10:13:27;4.47;;;3.33;;
11699;SDS011;5906;51.660;6.674;2023-07-31T10:15:58;5.37;;;3.63;;
11699;SDS011;5906;51.660;6.674;2023-07-31T10:18:27;5.00;;;3.70;;
11699;SDS011;5906;51.660;6.674;2023-07-31T10:20:56;6.57;;;3.97;;
11699;SDS011;5906;51.660;6.674;2023-07-31T10:23:24;5.90;;;4.10;;
11699;SDS011;5906;51.660;6.674;2023-07-31T10:25:53;5.73;;;4.20;;
11699;SDS011;5906;51.660;6.674;2023-07-31T10:28:20;7.93;;;4.50;;
11699;SDS011;5906;51.660;6.674;2023-07-31T10:30:48;6.43;;;4.77;;
11699;SDS011;5906;51.660;6.674;2023-07-31T10:33:16;8.80;;;4.73;;
11699;SDS011;5906;51.660;6.674;2023-07-31T10:35:44;11.83;;;4.83;;
11699;SDS011;5906;51.660;6.674;2023-07-31T10:38:13;11.50;;;4.70;;
11699;SDS011;5906;51.660;6.674;2023-07-31T10:40:40;8.37;;;4.90;;
11699;SDS011;5906;51.660;6.674;2023-07-31T10:43:07;9.43;;;4.73;;
11699;SDS011;5906;51.660;6.674;2023-07-31T10:45:38;11.80;;;4.97;;
11699;SDS011;5906;51.660;6.674;2023-07-31T10:48:06;6.97;;;4.43;;
11699;SDS011;5906;51.660;6.674;2023-07-31T10:50:56;6.70;;;4.60;;
11699;SDS011;5906;51.660;6.674;2023-07-31T10:55:51;8.60;;;4.87;;
11699;SDS011;5906;51.660;6.674;2023-07-31T10:58:19;11.37;;;4.80;;
11699;SDS011;5906;51.660;6.674;2023-07-31T11:00:51;6.03;;;4.53;;
11699;SDS011;5906;51.660;6.674;2023-07-31T11:03:25;9.33;;;4.73;;
11699;SDS011;5906;51.660;6.674;2023-07-31T11:06:00;6.97;;;4.70;;
11699;SDS011;5906;51.660;6.674;2023-07-31T11:08:30;6.93;;;4.97;;
11699;SDS011;5906;51.660;6.674;2023-07-31T11:15:56;9.43;;;4.30;;
11699;SDS011;5906;51.660;6.674;2023-07-31T11:18:24;8.23;;;4.00;;
11699;SDS011;5906;51.660;6.674;2023-07-31T11:20:53;7.30;;;4.33;;
11699;SDS011;5906;51.660;6.674;2023-07-31T11:23:21;8.67;;;4.03;;
11699;SDS011;5906;51.660;6.674;2023-07-31T11:25:49;10.40;;;4.17;;
11699;SDS011;5906;51.660;6.674;2023-07-31T11:28:18;9.73;;;4.30;;
11699;SDS011;5906;51.660;6.674;2023-07-31T11:30:46;6.60;;;3.77;;
11699;SDS011;5906;51.660;6.674;2023-07-31T11:33:13;9.60;;;4.57;;
11699;SDS011;5906;51.660;6.674;2023-07-31T11:35:42;8.37;;;4.23;;
11699;SDS011;5906;51.660;6.674;2023-07-31T11:38:12;8.63;;;4.10;;
11699;SDS011;5906;51.660;6.674;2023-07-31T11:40:49;5.77;;;3.60;;
11699;SDS011;5906;51.660;6.674;2023-07-31T11:43:17;7.30;;;4.10;;
11699;SDS011;5906;51.660;6.674;2023-07-31T11:45:48;6.17;;;3.63;;
11699;SDS011;5906;51.660;6.674;2023-07-31T11:48:24;6.20;;;3.60;;
11699;SDS011;5906;51.660;6.674;2023-07-31T11:51:00;7.43;;;3.37;;
11699;SDS011;5906;51.660;6.674;2023-07-31T11:56:21;5.87;;;3.40;;
11699;SDS011;5906;51.660;6.674;2023-07-31T11:58:52;7.23;;;4.10;;
11699;SDS011;5906;51.660;6.674;2023-07-31T12:01:21;7.03;;;3.43;;
11699;SDS011;5906;51.660;6.674;2023-07-31T12:03:50;6.03;;;3.80;;
11699;SDS011;5906;51.660;6.674;2023-07-31T12:06:18;4.33;;;3.60;;
11699;SDS011;5906;51.660;6.674;2023-07-31T12:08:47;7.10;;;3.40;;
11699;SDS011;5906;51.660;6.674;2023-07-31T12:11:15;11.03;;;3.90;;
11699;SDS011;5906;51.660;6.674;2023-07-31T12:13:44;4.00;;;3.60;;
11699;SDS011;5906;51.660;6.674;2023-07-31T12:16:12;9.63;;;3.53;;
11699;SDS011;5906;51.660;6.674;2023-07-31T12:18:39;5.57;;;3.73;;
11699;SDS011;5906;51.660;6.674;2023-07-31T12:21:07;6.33;;;2.93;;
11699;SDS011;5906;51.660;6.674;2023-07-31T12:23:36;8.30;;;3.57;;
11699;SDS011;5906;51.660;6.674;2023-07-31T12:31:15;4.73;;;3.43;;
11699;SDS011;5906;51.660;6.674;2023-07-31T12:33:46;5.13;;;3.53;;
11699;SDS011;5906;51.660;6.674;2023-07-31T12:36:18;6.70;;;3.20;;
11699;SDS011;5906;51.660;6.674;2023-07-31T12:38:48;5.47;;;3.70;;
11699;SDS011;5906;51.660;6.674;2023-07-31T12:41:19;5.87;;;3.90;;
11699;SDS011;5906;51.660;6.674;2023-07-31T12:43:46;5.73;;;3.73;;
11699;SDS011;5906;51.660;6.674;2023-07-31T12:46:14;6.70;;;3.80;;
11699;SDS011;5906;51.660;6.674;2023-07-31T12:48:42;8.90;;;3.70;;
11699;SDS011;5906;51.660;6.674;2023-07-31T12:51:09;7.13;;;3.50;;
11699;SDS011;5906;51.660;6.674;2023-07-31T12:53:36;5.10;;;3.03;;
11699;SDS011;5906;51.660;6.674;2023-07-31T12:56:04;4.50;;;3.03;;
11699;SDS011;5906;51.660;6.674;2023-07-31T12:58:31;5.77;;;3.60;;
11699;SDS011;5906;51.660;6.674;2023-07-31T13:00:58;7.70;;;3.30;;
11699;SDS011;5906;51.660;6.674;2023-07-31T13:03:25;4.40;;;3.37;;
11699;SDS011;5906;51.660;6.674;2023-07-31T13:05:52;5.23;;;2.90;;
11699;SDS011;5906;51.660;6.674;2023-07-31T13:08:20;17.10;;;3.13;;
11699;SDS011;5906;51.660;6.674;2023-07-31T13:10:47;4.10;;;2.93;;
11699;SDS011;5906;51.660;6.674;2023-07-31T13:13:15;9.40;;;3.30;;
11699;SDS011;5906;51.660;6.674;2023-07-31T13:15:43;4.87;;;3.53;;
11699;SDS011;5906;51.660;6.674;2023-07-31T13:18:10;5.53;;;3.20;;
11699;SDS011;5906;51.660;6.674;2023-07-31T13:20:37;5.30;;;3.40;;
11699;SDS011;5906;51.660;6.674;2023-07-31T13:23:04;5.40;;;3.30;;
11699;SDS011;5906;51.660;6.674;2023-07-31T13:25:31;7.43;;;3.80;;
11699;SDS011;5906;51.660;6.674;2023-07-31T13:27:59;7.53;;;4.80;;
11699;SDS011;5906;51.660;6.674;2023-07-31T13:30:28;4.30;;;3.57;;
11699;SDS011;5906;51.660;6.674;2023-07-31T13:32:55;4.47;;;3.40;;
11699;SDS011;5906;51.660;6.674;2023-07-31T13:35:23;8.43;;;4.23;;
11699;SDS011;5906;51.660;6.674;2023-07-31T13:37:50;4.77;;;3.70;;
11699;SDS011;5906;51.660;6.674;2023-07-31T13:40:17;5.17;;;3.90;;
11699;SDS011;5906;51.660;6.674;2023-07-31T13:42:45;5.17;;;3.70;;
11699;SDS011;5906;51.660;6.674;2023-07-31T13:45:14;6.10;;;3.87;;
11699;SDS011;5906;51.660;6.674;2023-07-31T13:47:41;7.03;;;4.03;;
11699;SDS011;5906;51.660;6.674;2023-07-31T13:50:08;6.43;;;4.07;;
11699;SDS011;5906;51.660;6.674;2023-07-31T13:52:36;6.87;;;3.97;;
11699;SDS011;5906;51.660;6.674;2023-07-31T13:55:02;8.57;;;4.70;;
11699;SDS011;5906;51.660;6.674;2023-07-31T13:57:30;6.97;;;4.67;;
11699;SDS011;5906;51.660;6.674;2023-07-31T13:59:57;6.30;;;4.37;;
11699;SDS011;5906;51.660;6.674;2023-07-31T14:02:24;7.70;;;4.20;;
11699;SDS011;5906;51.660;6.674;2023-07-31T14:04:51;14.50;;;4.73;;
11699;SDS011;5906;51.660;6.674;2023-07-31T14:07:18;7.57;;;4.80;;
11699;SDS011;5906;51.660;6.674;2023-07-31T14:09:45;9.40;;;5.40;;
11699;SDS011;5906;51.660;6.674;2023-07-31T14:12:12;7.97;;;4.97;;
11699;SDS011;5906;51.660;6.674;2023-07-31T14:14:57;12.43;;;4.30;;
11699;SDS011;5906;51.660;6.674;2023-07-31T14:17:24;9.10;;;5.10;;
11699;SDS011;5906;51.660;6.674;2023-07-31T14:19:51;7.93;;;5.27;;
11699;SDS011;5906;51.660;6.674;2023-07-31T14:22:31;8.00;;;4.83;;
11699;SDS011;5906;51.660;6.674;2023-07-31T14:24:59;12.40;;;4.10;;
11699;SDS011;5906;51.660;6.674;2023-07-31T14:27:27;12.87;;;5.20;;
11699;SDS011;5906;51.660;6.674;2023-07-31T14:29:54;10.23;;;4.97;;
11699;SDS011;5906;51.660;6.674;2023-07-31T14:32:22;9.00;;;4.37;;
11699;SDS011;5906;51.660;6.674;2023-07-31T14:34:52;10.10;;;4.90;;
11699;SDS011;5906;51.660;6.674;2023-07-31T14:37:19;11.00;;;5.33;;
11699;SDS011;5906;51.660;6.674;2023-07-31T14:39:46;7.10;;;4.87;;
11699;SDS011;5906;51.660;6.674;2023-07-31T14:42:13;10.33;;;5.47;;
11699;SDS011;5906;51.660;6.674;2023-07-31T14:44:40;13.47;;;5.30;;
11699;SDS011;5906;51.660;6.674;2023-07-31T14:47:07;8.13;;;4.53;;
11699;SDS011;5906;51.660;6.674;2023-07-31T14:49:37;9.80;;;4.83;;
11699;SDS011;5906;51.660;6.674;2023-07-31T14:52:07;7.83;;;5.00;;
11699;SDS011;5906;51.660;6.674;2023-07-31T14:54:34;7.00;;;4.73;;
11699;SDS011;5906;51.660;6.674;2023-07-31T14:57:02;8.60;;;5.13;;
11699;SDS011;5906;51.660;6.674;2023-07-31T14:59:30;6.47;;;4.90;;
11699;SDS011;5906;51.660;6.674;2023-07-31T15:01:57;8.30;;;4.67;;
11699;SDS011;5906;51.660;6.674;2023-07-31T15:04:24;10.13;;;5.30;;
11699;SDS011;5906;51.660;6.674;2023-07-31T15:06:52;10.90;;;6.13;;
11699;SDS011;5906;51.660;6.674;2023-07-31T15:09:20;9.23;;;5.50;;
11699;SDS011;5906;51.660;6.674;2023-07-31T15:11:47;17.30;;;7.03;;
11699;SDS011;5906;51.660;6.674;2023-07-31T15:14:14;11.67;;;6.20;;
11699;SDS011;5906;51.660;6.674;2023-07-31T15:16:42;12.40;;;6.57;;
11699;SDS011;5906;51.660;6.674;2023-07-31T15:19:10;10.63;;;6.43;;
11699;SDS011;5906;51.660;6.674;2023-07-31T15:21:37;12.97;;;6.10;;